Hauptseite
METAR-TAF:

METAR-TAF

Flughäfen :

Lydd, England

Breite: 50-57N, Länge: 000-56E, Höhe: 3 m

Beobachtung

Neuester Wetterbericht von vor 27 Minuten, um 18:50 UTC
Wind 23 kt aus Ost/Nordost
Temperatur 9°C
Luftfeuchtigkeit 71%
Luftdruck 1024 hPa
Sichtweite 10 km oder mehr

METAR: EGMD 181850Z AUTO 07023KT 9999 NCD 09/04 Q1024

Zeit: 19:17 (19:17 UTC)

Prognose

Neuester Wetterbericht von vor 2 Stunden und 16 Minuten, um 17:01 UTC
Gültige Prognose vom 18 um 18 UTC bis 19 um 03 UTC
Wind 17 kt aus Ost
Sichtweite 10 km oder mehr
keine Wolken unter 1500 m und keine Kumulonimbus oder Gewitterwolken
Wahrscheinlichkeit 30% :
Zeitweise
vom 18 um 18 UTC bis 18 um 24 UTC
Sichtweite: 8000 m

TAF: EGMD 181701Z 1818/1903 08017KT CAVOK PROB30 TEMPO 1818/1824 8000

Wetterbeobachtungen und Prognosen von mehr als 4000 Flughäfen (METAR und TAF Bericht).

Die verfügbaren Stationen werden durch gelbe und rote Markierungen auf der Karte dargestellt.

Führen Sie die Maus auf sie, um den Namen der Station zu sehen.

Darauf klicken, um die Beobachtung von Wetterbeobachtungen und Prognosen zu sehen.

Um die Karte zu ändern : klicken Sie auf den grünen Tasten mit einem schwarzen Kreuz Zum Vergrößern, auf den grünen Button mit einem Gedankenstrich zu verkleinern, oder auf die grünen Pfeile für benachbarte Karten.


METAR-TAF: